createdAt,value
2023-04-18T00:25:17.813Z,7.10
2023-04-18T00:30:21.159Z,7.20
2023-04-18T00:35:26.159Z,7.00
2023-04-18T00:40:30.508Z,6.90
2023-04-18T00:45:33.088Z,7.00
2023-04-18T00:50:37.521Z,6.70
2023-04-18T00:55:41.793Z,6.70
2023-04-18T01:00:44.586Z,6.70
2023-04-18T01:05:48.318Z,6.80
2023-04-18T01:10:52.411Z,7.00
2023-04-18T01:15:55.034Z,7.00
2023-04-18T01:20:57.713Z,6.90
2023-04-18T01:26:01.512Z,6.70
2023-04-18T01:31:04.140Z,6.90
2023-04-18T01:36:07.141Z,6.70
2023-04-18T01:41:10.910Z,6.60
2023-04-18T01:46:13.418Z,6.70
2023-04-18T01:51:16.032Z,6.70
2023-04-18T01:56:22.801Z,6.70
2023-04-18T02:01:25.740Z,6.90
2023-04-18T02:06:31.146Z,7.00
2023-04-18T02:11:36.864Z,7.00
2023-04-18T02:16:39.506Z,6.90
2023-04-18T02:21:45.067Z,6.80
2023-04-18T02:26:48.931Z,6.70
2023-04-18T02:31:54.127Z,6.50
2023-04-18T02:36:59.323Z,6.40
2023-04-18T02:42:03.301Z,6.60
2023-04-18T02:47:08.430Z,6.70
2023-04-18T02:52:14.862Z,6.70
2023-04-18T02:57:18.760Z,6.60
2023-04-18T03:02:44.714Z,6.60
2023-04-18T03:08:00.166Z,6.60
2023-04-18T03:13:05.121Z,6.60
2023-04-18T03:18:08.638Z,6.60
2023-04-18T03:23:14.700Z,6.60
2023-04-18T03:28:18.740Z,6.60
2023-04-18T03:33:21.320Z,6.60
2023-04-18T03:38:28.002Z,6.60
2023-04-18T03:43:31.910Z,6.60
2023-04-18T03:48:34.433Z,6.60
2023-04-18T03:53:40.628Z,6.70
2023-04-18T03:58:44.678Z,6.80
2023-04-18T04:03:47.787Z,6.80
2023-04-18T04:08:50.641Z,6.50
2023-04-18T04:13:58.880Z,6.60
2023-04-18T04:19:07.470Z,6.50
2023-04-18T04:24:16.798Z,6.50
2023-04-18T04:29:23.878Z,6.70
2023-04-18T04:34:27.334Z,6.70
2023-04-18T04:39:32.948Z,6.80
2023-04-18T04:44:57.014Z,6.80
2023-04-18T04:50:00.119Z,6.80
2023-04-18T04:55:02.761Z,6.70
2023-04-18T05:00:09.533Z,6.90
2023-04-18T05:05:12.290Z,7.10
2023-04-18T05:10:14.857Z,6.90
2023-04-18T05:15:20.678Z,6.70
2023-04-18T05:20:23.619Z,6.80
2023-04-18T05:25:26.166Z,7.00
2023-04-18T05:30:30.056Z,7.20
2023-04-18T05:35:32.676Z,7.30
2023-04-18T05:40:35.145Z,7.40
2023-04-18T05:45:39.201Z,7.50
2023-04-18T05:50:42.847Z,7.80
2023-04-18T05:55:48.707Z,7.60
2023-04-18T06:00:53.364Z,7.70
2023-04-18T06:05:56.130Z,7.90
2023-04-18T06:10:58.988Z,8.00
2023-04-18T06:16:03.612Z,7.90
2023-04-18T06:21:06.466Z,8.20
2023-04-18T06:26:09.301Z,8.40
2023-04-18T06:31:13.217Z,8.80
2023-04-18T06:36:16.105Z,8.80
2023-04-18T06:41:19.904Z,8.70
2023-04-18T06:46:24.116Z,8.70
2023-04-18T06:51:30.998Z,8.50
2023-04-18T06:56:36.532Z,8.80
2023-04-18T07:01:41.816Z,9.20
2023-04-18T07:06:45.543Z,9.20
2023-04-18T07:11:48.348Z,9.20
2023-04-18T07:16:52.644Z,9.50
2023-04-18T07:21:55.628Z,9.40
2023-04-18T07:26:58.215Z,9.70
2023-04-18T07:32:03.044Z,9.40
2023-04-18T07:37:08.375Z,9.90
2023-04-18T07:42:12.770Z,10.30
2023-04-18T07:47:17.186Z,10.20
2023-04-18T07:52:20.125Z,10.40
2023-04-18T07:57:22.705Z,10.20
2023-04-18T08:02:29.062Z,10.30
2023-04-18T08:07:32.405Z,10.30
2023-04-18T08:12:34.961Z,10.50
2023-04-18T08:17:39.387Z,10.60
2023-04-18T08:22:57.674Z,10.90
2023-04-18T08:28:06.058Z,10.80
2023-04-18T08:33:10.234Z,11.00
2023-04-18T08:38:19.754Z,11.10
2023-04-18T08:43:22.922Z,11.20
2023-04-18T08:48:27.656Z,11.20
2023-04-18T08:53:34.197Z,11.20
2023-04-18T08:58:37.782Z,11.50
2023-04-18T09:03:43.037Z,11.60
2023-04-18T09:08:57.986Z,11.50
2023-04-18T09:14:01.032Z,11.60
2023-04-18T09:19:14.612Z,12.00
2023-04-18T09:24:22.836Z,12.00
2023-04-18T09:29:47.499Z,12.00
2023-04-18T09:34:56.703Z,12.00
2023-04-18T09:39:59.677Z,12.40
2023-04-18T09:45:07.820Z,12.30
2023-04-18T09:50:14.900Z,12.20
2023-04-18T09:55:19.474Z,12.40
2023-04-18T10:00:26.364Z,12.60
2023-04-18T10:05:39.846Z,12.90
2023-04-18T10:10:45.023Z,12.70
2023-04-18T10:15:47.997Z,12.60
2023-04-18T10:21:02.220Z,12.30
2023-04-18T10:26:06.660Z,12.40
2023-04-18T10:31:09.348Z,12.60
2023-04-18T10:36:18.819Z,12.50
2023-04-18T10:41:27.346Z,12.70
2023-04-18T10:46:32.851Z,12.80
2023-04-18T10:51:37.046Z,13.00
2023-04-18T10:56:39.752Z,13.20
2023-04-18T11:01:49.144Z,13.10
2023-04-18T11:06:55.358Z,13.30
2023-04-18T11:12:07.077Z,13.40
2023-04-18T11:17:21.010Z,13.20
2023-04-18T11:22:25.201Z,13.00
2023-04-18T11:27:48.646Z,13.20
2023-04-18T11:32:52.472Z,13.30
2023-04-18T11:38:01.210Z,13.20
2023-04-18T11:43:06.566Z,13.20
2023-04-18T11:48:10.016Z,13.30
2023-04-18T11:53:14.662Z,13.40
2023-04-18T11:58:17.411Z,13.40
2023-04-18T12:03:22.264Z,13.40
2023-04-18T12:08:27.485Z,13.50
2023-04-18T12:13:33.022Z,13.40
2023-04-18T12:18:38.332Z,13.30
2023-04-18T12:23:44.810Z,13.20
2023-04-18T12:28:51.422Z,13.40
2023-04-18T12:33:54.066Z,13.40
2023-04-18T12:38:59.079Z,13.50
2023-04-18T12:44:06.229Z,13.30
2023-04-18T12:49:09.131Z,13.10
2023-04-18T12:54:17.235Z,13.20
2023-04-18T12:59:20.754Z,13.40
2023-04-18T13:04:23.871Z,13.30
2023-04-18T13:09:30.854Z,13.30
2023-04-18T13:14:33.390Z,13.40
2023-04-18T13:19:35.897Z,13.20
2023-04-18T13:24:39.866Z,13.30
2023-04-18T13:29:46.111Z,13.30
2023-04-18T13:34:49.170Z,12.90
2023-04-18T13:39:53.142Z,13.00
2023-04-18T13:45:00.812Z,13.00
2023-04-18T13:50:03.408Z,12.80
2023-04-18T13:55:09.170Z,12.70
2023-04-18T14:00:13.180Z,12.70
2023-04-18T14:05:15.771Z,12.40
2023-04-18T14:10:19.608Z,12.40
2023-04-18T14:15:24.476Z,12.20
2023-04-18T14:20:27.382Z,12.40
2023-04-18T14:25:31.359Z,12.60
2023-04-18T14:30:34.033Z,12.50
2023-04-18T14:35:36.687Z,12.40
2023-04-18T14:40:40.778Z,12.30
2023-04-18T14:45:43.295Z,12.40
2023-04-18T14:50:45.862Z,12.10
2023-04-18T14:55:50.046Z,12.40
2023-04-18T15:00:52.621Z,12.50
2023-04-18T15:05:56.005Z,12.30
2023-04-18T15:10:59.742Z,12.00
2023-04-18T15:16:02.259Z,11.70
2023-04-18T15:21:04.783Z,11.70
2023-04-18T15:26:14.743Z,11.50
2023-04-18T15:31:17.230Z,12.00
2023-04-18T15:36:19.683Z,11.80
2023-04-18T15:41:23.626Z,11.60
2023-04-18T15:46:26.133Z,11.30
2023-04-18T15:51:28.809Z,11.30
2023-04-18T15:56:33.614Z,11.40
2023-04-18T16:01:36.433Z,11.20
2023-04-18T16:06:38.860Z,10.70
2023-04-18T16:11:42.685Z,10.80
2023-04-18T16:16:48.195Z,10.80
2023-04-18T16:21:50.692Z,10.80
2023-04-18T16:26:57.675Z,10.80
2023-04-18T16:32:00.072Z,10.70
2023-04-18T16:37:02.609Z,10.60
2023-04-18T16:42:06.645Z,10.40
2023-04-18T16:47:09.111Z,10.60
2023-04-18T16:52:14.547Z,10.50
2023-04-18T16:57:18.544Z,10.20
2023-04-18T17:02:21.144Z,10.30
2023-04-18T17:07:23.649Z,10.00
2023-04-18T17:12:27.554Z,10.10
2023-04-18T17:17:32.823Z,9.80
2023-04-18T17:22:35.465Z,9.50
2023-04-18T17:27:40.060Z,9.30
2023-04-18T17:32:42.545Z,9.30
2023-04-18T17:37:46.352Z,9.10
2023-04-18T17:42:53.151Z,8.90
2023-04-18T17:47:57.710Z,8.70
2023-04-18T17:53:00.132Z,8.60
2023-04-18T17:58:03.918Z,8.40
2023-04-18T18:03:06.514Z,8.50
2023-04-18T18:08:09.053Z,8.40
2023-04-18T18:13:13.008Z,8.40
2023-04-18T18:18:15.422Z,8.10
2023-04-18T18:23:17.952Z,8.00
2023-04-18T18:28:22.048Z,8.10
2023-04-18T18:33:24.585Z,7.90
2023-04-18T18:38:27.143Z,7.90
2023-04-18T18:43:30.937Z,7.60
2023-04-18T18:48:33.340Z,7.30
2023-04-18T18:53:36.815Z,7.30
2023-04-18T18:58:42.158Z,7.20
2023-04-18T19:03:44.587Z,7.20
2023-04-18T19:08:47.165Z,6.80
2023-04-18T19:13:52.935Z,6.80
2023-04-18T19:18:55.357Z,6.70
2023-04-18T19:24:00.820Z,6.70
2023-04-18T19:29:06.344Z,6.60
2023-04-18T19:34:08.782Z,6.60
2023-04-18T19:39:11.166Z,6.60
2023-04-18T19:44:15.047Z,6.20
2023-04-18T19:49:17.624Z,6.30
2023-04-18T19:54:21.710Z,6.30
2023-04-18T19:59:25.820Z,6.20
2023-04-18T20:04:31.000Z,6.10
2023-04-18T20:09:35.078Z,6.10
2023-04-18T20:14:41.685Z,5.90
2023-04-18T20:19:49.823Z,5.90
2023-04-18T20:24:52.536Z,6.00
2023-04-18T20:29:57.337Z,5.80
2023-04-18T20:35:00.105Z,5.60
2023-04-18T20:40:02.611Z,5.50
2023-04-18T20:45:08.164Z,5.40
2023-04-18T20:50:11.249Z,5.20
2023-04-18T20:55:15.206Z,5.30
2023-04-18T21:00:22.939Z,5.30
2023-04-18T21:05:25.364Z,5.20
2023-04-18T21:10:27.747Z,5.20
2023-04-18T21:15:31.580Z,5.10
2023-04-18T21:20:34.017Z,5.20
2023-04-18T21:25:40.886Z,5.00
2023-04-18T21:30:44.777Z,5.00
2023-04-18T21:35:47.267Z,5.10
2023-04-18T21:40:49.811Z,5.10
2023-04-18T21:45:53.692Z,5.10
2023-04-18T21:50:56.364Z,5.10
2023-04-18T21:55:58.843Z,5.20
2023-04-18T22:01:06.072Z,5.10
2023-04-18T22:06:11.610Z,4.90
2023-04-18T22:11:14.159Z,5.10
2023-04-18T22:16:18.115Z,5.10
2023-04-18T22:21:20.675Z,5.00
2023-04-18T22:26:23.178Z,5.10
2023-04-18T22:31:27.119Z,4.90
2023-04-18T22:36:29.598Z,4.90
2023-04-18T22:41:31.982Z,5.10
2023-04-18T22:46:39.013Z,4.80
2023-04-18T22:51:41.479Z,4.50
2023-04-18T22:56:43.979Z,4.40
2023-04-18T23:01:47.839Z,4.30
2023-04-18T23:06:53.192Z,4.20
2023-04-18T23:11:55.616Z,4.10
2023-04-18T23:16:59.360Z,4.00
2023-04-18T23:22:01.782Z,3.90
2023-04-18T23:27:04.488Z,4.20
2023-04-18T23:32:08.362Z,4.30
2023-04-18T23:37:10.751Z,4.30
2023-04-18T23:42:13.140Z,4.20
2023-04-18T23:47:17.152Z,4.10
2023-04-18T23:52:19.693Z,4.20
2023-04-18T23:57:22.118Z,4.30
